Nyborg, Denmark
Current Conditions -  °F | °C
As of 9:20 AM on Thursday 18 Dec 2014 (Local Time) from EKSB Reporting Station
Light Rain Light Rain  
Wind Chill: 41°   Ceiling: 400
Heat Index: 46°   Visibility: 2.5mi
Dew Point: 46°   Wind: 10mph
Humidity: 100%   Direction: 210°SSW
Pressure: 29.59"   Gusts: NA
Location:  55.31°N, 10.79°E
Report Text: EKSB 180820Z 21009KT 4000 -RA BR BKN004 08/08 Q1002
Loading
Personal Weather Stations






























Interactive Weather Map New forecast layout! Learn more

10-Day Weather Forecast

Advertisements
Track Severe Weather on mobile